Time;durP1;ratioP1;P1;durP2;ratioP2;P2;SDS_P1;SDS_P2;PMS_P1;PMS_P2;Temp;Humidity;BMP_temperature;BMP_pressure;BME280_temperature;BME280_humidity;BME280_pressure;Samples;Min_cycle;Max_cycle;Signal;HPM_P1;HPM_P2
2023/08/19 00:00:23;;;;;;;31.65;26.98;;;;;;;21.53;100.00;101078.53;6207369;23;20004;-85
2023/08/19 00:02:49;;;;;;;30.67;27.40;;;;;;;21.31;100.00;101052.06;6181105;23;20008;-85
2023/08/19 00:05:14;;;;;;;31.42;27.73;;;;;;;21.45;100.00;101085.06;6180873;23;20479;-86
2023/08/19 00:07:40;;;;;;;30.27;27.00;;;;;;;21.39;100.00;101064.41;6181483;23;20012;-87
2023/08/19 00:10:06;;;;;;;33.10;28.20;;;;;;;21.41;100.00;101064.19;6181304;23;20122;-86
2023/08/19 00:12:31;;;;;;;34.03;29.02;;;;;;;21.31;100.00;101040.47;6208354;23;20004;-86
2023/08/19 00:14:57;;;;;;;32.50;28.98;;;;;;;21.29;100.00;101042.53;6207635;23;20023;-87
2023/08/19 00:17:23;;;;;;;33.25;27.83;;;;;;;21.37;100.00;101058.44;6181857;23;20087;-86
2023/08/19 00:19:49;;;;;;;31.55;27.98;;;;;;;21.45;100.00;101076.13;6208168;23;20025;-85
2023/08/19 00:22:15;;;;;;;32.45;27.80;;;;;;;21.46;100.00;101080.50;6209424;23;20031;-85
2023/08/19 00:24:40;;;;;;;33.45;28.38;;;;;;;21.41;100.00;101073.09;6182434;23;20429;-88
2023/08/19 00:27:06;;;;;;;30.17;26.75;;;;;;;21.28;100.00;101046.28;6183054;23;20032;-86
2023/08/19 00:29:31;;;;;;;33.25;28.92;;;;;;;21.26;100.00;101049.22;6182819;23;20105;-85
2023/08/19 00:31:57;;;;;;;32.00;27.20;;;;;;;21.34;100.00;101053.47;6189296;23;20089;-88
2023/08/19 00:34:22;;;;;;;31.65;28.20;;;;;;;21.30;100.00;101045.03;6217026;23;20008;-88
2023/08/19 00:36:48;;;;;;;30.17;26.45;;;;;;;21.39;100.00;101058.16;6222311;23;20005;-87
2023/08/19 00:39:13;;;;;;;34.85;29.10;;;;;;;21.41;100.00;101066.88;6223190;23;20008;-88
2023/08/19 00:41:39;;;;;;;31.98;27.48;;;;;;;21.32;100.00;101061.78;6223524;23;20386;-86
2023/08/19 00:44:05;;;;;;;33.72;27.35;;;;;;;21.31;100.00;101062.84;6195154;23;20039;-86
2023/08/19 00:46:31;;;;;;;31.17;27.77;;;;;;;21.30;100.00;101055.81;6182973;23;20016;-88
2023/08/19 00:48:57;;;;;;;30.48;27.13;;;;;;;21.40;100.00;101081.41;6209367;23;20005;-89
2023/08/19 00:51:23;;;;;;;30.88;27.13;;;;;;;21.34;100.00;101073.19;6209465;23;20036;-86
2023/08/19 00:53:49;;;;;;;31.42;26.42;;;;;;;21.29;100.00;101070.34;6208453;23;20112;-86
2023/08/19 00:56:15;;;;;;;30.13;26.85;;;;;;;21.38;100.00;101078.94;6207775;23;20150;-87
2023/08/19 00:58:41;;;;;;;30.30;25.95;;;;;;;21.37;100.00;101064.63;6208464;23;20015;-87
2023/08/19 01:01:07;;;;;;;30.52;26.48;;;;;;;21.28;100.00;101052.53;6207887;23;20015;-85
2023/08/19 01:03:33;;;;;;;31.17;27.55;;;;;;;21.21;100.00;101043.69;6180280;23;20059;-88
2023/08/19 01:06:14;;;;;;;31.48;26.75;;;;;;;21.39;100.00;101060.88;6208312;23;20341;-86
2023/08/19 01:09:08;;;;;;;31.67;27.60;;;;;;;21.37;100.00;101051.13;6206819;23;20005;-86
2023/08/19 01:11:50;;;;;;;30.42;25.95;;;;;;;21.37;100.00;101059.22;6207859;23;20023;-89
2023/08/19 01:14:18;;;;;;;30.08;26.83;;;;;;;21.36;100.00;101062.16;6207882;23;20012;-85
2023/08/19 01:16:48;;;;;;;30.80;27.42;;;;;;;21.16;100.00;101024.69;6208279;23;20013;-88
2023/08/19 01:19:22;;;;;;;32.17;26.73;;;;;;;21.21;100.00;101024.81;6209225;23;20028;-88
2023/08/19 01:21:52;;;;;;;28.77;25.67;;;;;;;21.36;100.00;101049.50;6210270;23;20436;-86
2023/08/19 01:24:20;;;;;;;29.05;25.33;;;;;;;21.28;100.00;101035.50;6182888;23;20004;-86
2023/08/19 01:26:46;;;;;;;29.75;25.00;;;;;;;21.39;100.00;101040.13;6210179;23;20016;-86
2023/08/19 01:29:11;;;;;;;29.10;25.02;;;;;;;21.46;100.00;101045.44;6210201;23;20008;-86
2023/08/19 01:31:37;;;;;;;29.95;25.27;;;;;;;21.30;100.00;101026.13;6183279;23;20023;-86
2023/08/19 01:34:02;;;;;;;27.23;24.25;;;;;;;21.40;100.00;101033.69;6182854;23;20087;-86
2023/08/19 01:36:39;;;;;;;28.23;24.05;;;;;;;21.37;100.00;101021.47;6210062;23;20428;-86
2023/08/19 01:39:09;;;;;;;26.50;23.55;;;;;;;21.40;100.00;101011.28;6209137;23;20441;-87
2023/08/19 01:41:36;;;;;;;27.17;24.15;;;;;;;21.47;100.00;101014.72;6182532;23;20048;-87
2023/08/19 01:44:02;;;;;;;26.95;23.63;;;;;;;21.41;100.00;101002.16;6209577;23;20004;-87
2023/08/19 01:46:28;;;;;;;26.13;22.95;;;;;;;21.49;100.00;101016.13;6209429;23;20008;-88
2023/08/19 01:48:53;;;;;;;24.20;21.17;;;;;;;21.49;100.00;101012.59;6208945;23;20019;-86
2023/08/19 01:51:19;;;;;;;26.55;22.38;;;;;;;21.39;100.00;100998.84;6181858;23;20023;-89
2023/08/19 01:53:44;;;;;;;26.48;22.85;;;;;;;21.43;100.00;101000.03;6209906;23;20012;-86
2023/08/19 01:56:11;;;;;;;25.98;21.42;;;;;;;21.48;100.00;101014.47;6209479;23;20012;-86
2023/08/19 01:58:37;;;;;;;25.20;22.35;;;;;;;21.42;100.00;101004.59;6209112;23;20043;-89
2023/08/19 02:01:02;;;;;;;25.38;21.95;;;;;;;21.44;100.00;101007.91;6181892;23;20005;-86
2023/08/19 02:03:28;;;;;;;26.50;21.25;;;;;;;21.42;100.00;101009.97;6208305;23;20020;-86
2023/08/19 02:05:53;;;;;;;24.52;20.50;;;;;;;21.50;100.00;101011.53;6209054;23;20445;-86
2023/08/19 02:08:19;;;;;;;24.15;20.48;;;;;;;21.47;100.00;101001.22;6209532;23;20013;-88
2023/08/19 02:10:44;;;;;;;24.25;20.75;;;;;;;21.39;100.00;100985.34;6182396;23;20058;-87
2023/08/19 02:13:09;;;;;;;23.27;20.23;;;;;;;21.37;100.00;100991.78;6182637;23;20123;-89
2023/08/19 02:15:35;;;;;;;22.50;19.77;;;;;;;21.54;100.00;101012.72;6209115;23;20416;-88
2023/08/19 02:18:00;;;;;;;22.20;19.50;;;;;;;21.49;100.00;100994.53;6182133;23;20086;-85
2023/08/19 02:20:26;;;;;;;22.52;18.85;;;;;;;21.40;100.00;100978.94;6208663;23;20071;-85
2023/08/19 02:22:52;;;;;;;24.70;19.20;;;;;;;21.46;100.00;100989.59;6208733;23;20458;-84
2023/08/19 02:25:19;;;;;;;21.65;19.08;;;;;;;21.45;100.00;100981.72;6182285;23;20159;-85
2023/08/19 02:27:44;;;;;;;20.52;18.05;;;;;;;21.58;100.00;101007.69;6208823;23;20066;-85
2023/08/19 02:30:10;;;;;;;22.35;18.90;;;;;;;21.50;100.00;100985.38;6207768;23;20401;-87
2023/08/19 02:32:39;;;;;;;19.88;17.50;;;;;;;21.55;100.00;100987.38;6208994;23;20088;-85
2023/08/19 02:35:05;;;;;;;22.15;18.38;;;;;;;21.46;100.00;100965.31;6208909;23;20119;-86
2023/08/19 02:37:30;;;;;;;22.17;18.52;;;;;;;21.45;100.00;100976.31;6208493;23;20008;-88
2023/08/19 02:39:56;;;;;;;20.58;17.80;;;;;;;21.45;100.00;100970.94;6208714;23;20009;-85
2023/08/19 02:42:21;;;;;;;20.50;16.88;;;;;;;21.56;100.00;100988.22;6207970;23;20553;-86
2023/08/19 02:44:46;;;;;;;20.42;17.20;;;;;;;21.47;100.00;100975.03;6208126;23;20026;-87
2023/08/19 02:47:12;;;;;;;21.20;17.60;;;;;;;21.56;100.00;100988.22;6181205;23;20083;-85
2023/08/19 02:49:37;;;;;;;20.40;17.58;;;;;;;21.54;100.00;100982.22;6209255;23;20005;-86
2023/08/19 02:52:04;;;;;;;21.75;18.13;;;;;;;21.55;100.00;100989.28;6182319;23;20016;-85
2023/08/19 02:54:29;;;;;;;23.23;18.40;;;;;;;21.57;100.00;100990.66;6209001;23;20548;-85
2023/08/19 02:56:55;;;;;;;19.88;17.20;;;;;;;21.45;100.00;100971.78;6208434;23;20009;-85
2023/08/19 02:59:20;;;;;;;19.48;17.33;;;;;;;21.54;100.00;100980.34;6209120;23;20397;-86
2023/08/19 03:01:45;;;;;;;21.40;16.77;;;;;;;21.43;100.00;100967.66;6208604;23;20013;-86
2023/08/19 03:04:11;;;;;;;20.50;17.55;;;;;;;21.45;100.00;100970.94;6208673;23;20008;-86
2023/08/19 03:06:36;;;;;;;21.88;16.65;;;;;;;21.37;100.00;100954.03;6208453;23;20019;-87
2023/08/19 03:09:02;;;;;;;20.67;17.15;;;;;;;21.45;100.00;100970.94;6182062;23;20088;-87
2023/08/19 03:11:28;;;;;;;19.27;16.70;;;;;;;21.55;100.00;100987.38;6181701;23;20012;-86
2023/08/19 03:13:54;;;;;;;20.33;16.55;;;;;;;21.39;100.00;100974.56;6208885;23;20035;-85
2023/08/19 03:16:19;;;;;;;18.52;15.82;;;;;;;21.35;100.00;100958.84;6181519;23;20016;-86
2023/08/19 03:18:44;;;;;;;18.88;16.33;;;;;;;21.43;100.00;100959.56;6208681;23;20394;-86
2023/08/19 03:21:10;;;;;;;18.85;15.50;;;;;;;21.44;100.00;100969.28;6208050;23;20016;-86
2023/08/19 03:23:35;;;;;;;19.10;15.98;;;;;;;21.46;100.00;100967.22;6208678;23;20012;-86
2023/08/19 03:26:01;;;;;;;20.98;15.77;;;;;;;21.47;100.00;100963.44;6181362;23;20009;-87
2023/08/19 03:28:26;;;;;;;18.58;15.85;;;;;;;21.46;100.00;100968.00;6208639;23;20005;-85
2023/08/19 03:30:51;;;;;;;20.17;15.75;;;;;;;21.33;100.00;100947.47;6208549;23;20107;-84
2023/08/19 03:33:17;;;;;;;19.27;15.38;;;;;;;21.49;100.00;100977.53;6208351;23;20012;-87
2023/08/19 03:35:42;;;;;;;19.50;15.82;;;;;;;21.47;100.00;100975.03;6208423;23;20012;-85
2023/08/19 03:38:08;;;;;;;18.67;15.77;;;;;;;21.42;100.00;100957.94;6208450;23;20024;-85
2023/08/19 03:40:33;;;;;;;20.02;15.23;;;;;;;21.36;100.00;100956.97;6208094;23;20017;-85
2023/08/19 03:42:59;;;;;;;18.98;15.73;;;;;;;21.33;100.00;100963.66;6208148;23;20051;-87
2023/08/19 03:45:24;;;;;;;18.08;14.63;;;;;;;21.37;100.00;100964.81;6207932;23;20009;-84
2023/08/19 03:47:49;;;;;;;18.25;14.82;;;;;;;21.40;100.00;100974.34;6208265;23;20425;-88
2023/08/19 03:50:15;;;;;;;18.90;15.60;;;;;;;21.48;100.00;100986.69;6181264;23;20425;-86
2023/08/19 03:52:40;;;;;;;19.33;15.38;;;;;;;21.35;100.00;100961.56;6208387;23;20013;-86
2023/08/19 03:55:06;;;;;;;16.52;14.57;;;;;;;21.36;100.00;100963.19;6181493;23;20013;-86
2023/08/19 03:57:32;;;;;;;18.35;14.10;;;;;;;21.42;100.00;100974.13;6208070;23;20388;-87
2023/08/19 03:59:57;;;;;;;20.15;14.50;;;;;;;21.45;100.00;100985.25;6181156;23;20008;-86
2023/08/19 04:02:23;;;;;;;17.10;14.48;;;;;;;21.45;100.00;100984.44;6181196;23;20017;-89
2023/08/19 04:05:05;;;;;;;20.00;14.35;;;;;;;21.39;100.00;100971.88;6181215;23;20036;-86
2023/08/19 04:07:30;;;;;;;17.38;14.38;;;;;;;21.43;100.00;100989.25;6208317;23;20058;-86
2023/08/19 04:09:56;;;;;;;17.10;13.93;;;;;;;21.34;100.00;100968.00;6180989;23;20008;-86
2023/08/19 04:12:26;;;;;;;15.02;13.43;;;;;;;21.45;100.00;100989.81;6182017;23;20062;-88
2023/08/19 04:14:52;;;;;;;16.08;13.10;;;;;;;21.44;100.00;100986.31;6208083;23;20008;-88
2023/08/19 04:17:19;;;;;;;19.90;13.38;;;;;;;21.24;100.00;100954.25;6207927;23;20004;-86
2023/08/19 04:19:45;;;;;;;18.45;13.02;;;;;;;21.33;100.00;100973.63;6180693;23;20100;-85
2023/08/19 04:22:14;;;;;;;17.83;13.18;;;;;;;21.35;100.00;100972.34;6206906;23;20046;-85
2023/08/19 04:24:40;;;;;;;17.77;12.50;;;;;;;21.30;100.00;100965.97;6207312;23;20015;-85
2023/08/19 04:27:06;;;;;;;14.98;12.88;;;;;;;21.46;100.00;100988.78;6207736;23;20009;-87
2023/08/19 04:29:34;;;;;;;20.13;12.98;;;;;;;21.47;100.00;100995.81;6181380;23;20024;-86
2023/08/19 04:32:01;;;;;;;16.50;11.98;;;;;;;21.32;100.00;100966.59;6208286;23;20016;-85
2023/08/19 04:34:27;;;;;;;15.07;11.80;;;;;;;21.42;100.00;100991.09;6207728;23;20015;-85
2023/08/19 04:36:52;;;;;;;16.08;12.30;;;;;;;21.41;100.00;100985.97;6208240;23;20344;-87
2023/08/19 04:39:18;;;;;;;15.18;11.63;;;;;;;21.32;100.00;100967.38;6207862;23;20013;-86
2023/08/19 04:41:43;;;;;;;14.40;11.82;;;;;;;21.43;100.00;100990.06;6181574;23;20460;-85
2023/08/19 04:44:09;;;;;;;12.85;11.30;;;;;;;21.32;100.00;100975.47;6180997;23;20019;-85
2023/08/19 04:46:34;;;;;;;16.38;11.20;;;;;;;21.30;100.00;100974.06;6180431;23;20008;-85
2023/08/19 04:48:59;;;;;;;16.77;11.23;;;;;;;21.34;100.00;100981.50;6208125;23;20079;-86
2023/08/19 04:51:25;;;;;;;14.32;10.98;;;;;;;21.44;100.00;100996.28;6208460;23;20074;-87
2023/08/19 04:53:50;;;;;;;17.35;11.40;;;;;;;21.43;100.00;100989.25;6181110;23;20289;-85
2023/08/19 04:56:16;;;;;;;14.70;11.75;;;;;;;21.35;100.00;100983.13;6181541;23;20004;-88
2023/08/19 04:58:41;;;;;;;14.98;11.15;;;;;;;21.41;100.00;100978.66;6182017;23;20599;-87
2023/08/19 05:01:06;;;;;;;15.32;11.00;;;;;;;21.35;100.00;100969.63;6181412;23;20021;-86
2023/08/19 05:03:32;;;;;;;14.07;10.98;;;;;;;21.33;100.00;100966.38;6208669;23;20012;-86
2023/08/19 05:05:57;;;;;;;17.27;11.73;;;;;;;21.48;100.00;100990.22;6181397;23;20496;-86
2023/08/19 05:08:23;;;;;;;14.38;10.98;;;;;;;21.36;100.00;100979.38;6207893;23;20088;-88
2023/08/19 05:10:48;;;;;;;15.02;11.00;;;;;;;21.36;100.00;100982.06;6180910;23;20019;-85
2023/08/19 05:13:13;;;;;;;11.85;10.32;;;;;;;21.36;100.00;100979.38;6208709;23;20485;-87
2023/08/19 05:15:39;;;;;;;17.58;10.70;;;;;;;21.37;100.00;100970.22;6208320;23;20008;-86
2023/08/19 05:18:05;;;;;;;15.82;10.82;;;;;;;21.44;100.00;100985.47;6181532;23;20186;-87
2023/08/19 05:20:30;;;;;;;12.80;10.75;;;;;;;21.41;100.00;100977.88;6181041;23;20017;-85
2023/08/19 05:22:56;;;;;;;13.70;10.25;;;;;;;21.58;100.00;101008.53;6181777;23;20005;-87
2023/08/19 05:25:23;;;;;;;16.75;10.60;;;;;;;21.60;100.00;101017.19;6181267;23;20008;-87
2023/08/19 05:27:49;;;;;;;13.70;10.07;;;;;;;21.50;100.00;100995.34;6181473;23;20344;-88
2023/08/19 05:30:14;;;;;;;14.20;10.40;;;;;;;21.46;100.00;100988.78;6208011;23;20012;-87
2023/08/19 05:32:40;;;;;;;16.20;10.02;;;;;;;21.52;100.00;100987.03;6181458;23;20053;-87
2023/08/19 05:35:05;;;;;;;15.82;10.23;;;;;;;21.51;100.00;100986.19;6181599;23;20067;-87
2023/08/19 05:37:31;;;;;;;11.88;9.73;;;;;;;21.66;100.00;101017.31;6208338;23;20039;-88
2023/08/19 05:39:56;;;;;;;15.27;9.82;;;;;;;21.65;100.00;101016.50;6181583;23;20013;-87
2023/08/19 05:42:22;;;;;;;14.27;10.32;;;;;;;21.55;100.00;100998.19;6208313;23;20009;-88
2023/08/19 05:44:47;;;;;;;15.55;9.80;;;;;;;21.60;100.00;101006.41;6181463;23;20060;-87
2023/08/19 05:47:14;;;;;;;13.95;9.60;;;;;;;21.55;100.00;100997.38;6208131;23;20023;-87
2023/08/19 05:49:39;;;;;;;13.38;9.50;;;;;;;21.50;100.00;100985.38;6208281;23;20008;-87
2023/08/19 05:52:04;;;;;;;14.30;9.43;;;;;;;21.66;100.00;101009.22;6209175;23;20070;-88
2023/08/19 05:54:30;;;;;;;13.95;9.50;;;;;;;21.58;100.00;100986.09;6181562;23;20015;-88
2023/08/19 05:56:55;;;;;;;15.38;9.75;;;;;;;21.56;100.00;100983.63;6208673;23;20008;-88
2023/08/19 05:59:20;;;;;;;13.13;9.82;;;;;;;21.69;100.00;101003.34;6208702;23;20015;-86
2023/08/19 06:01:46;;;;;;;11.73;9.27;;;;;;;21.79;100.00;101024.44;6207354;23;20047;-88
2023/08/19 06:04:11;;;;;;;12.48;9.23;;;;;;;21.68;100.00;101007.13;6207644;23;20342;-88
2023/08/19 06:06:36;;;;;;;11.93;9.15;;;;;;;21.81;100.00;101027.72;6209071;23;20781;-89
2023/08/19 06:09:02;;;;;;;13.45;9.13;;;;;;;21.93;100.00;101042.03;6209657;23;20455;-89
2023/08/19 06:11:28;;;;;;;12.45;8.90;;;;;;;21.87;100.00;101019.50;6209676;23;20004;-89
2023/08/19 06:13:53;;;;;;;12.90;8.70;;;;;;;22.06;100.00;101041.00;6210440;23;20012;-89
2023/08/19 06:16:18;;;;;;;14.85;9.32;;;;;;;22.08;100.00;101043.44;6183461;23;20013;-88
2023/08/19 06:18:44;;;;;;;13.13;9.02;;;;;;;22.02;100.00;101026.31;6211400;23;20016;-88
2023/08/19 06:21:09;;;;;;;15.98;8.80;;;;;;;22.16;100.00;101046.63;6211968;23;20012;-89
2023/08/19 06:23:35;;;;;;;12.48;9.25;;;;;;;22.19;100.00;101048.03;6211352;23;20032;-90
2023/08/19 06:26:00;;;;;;;14.65;9.05;;;;;;;22.19;100.00;101045.34;6210448;23;20035;-88
2023/08/19 06:28:25;;;;;;;14.43;9.23;;;;;;;22.25;100.00;101049.00;6184052;23;20005;-89
2023/08/19 06:30:51;;;;;;;12.68;8.98;;;;;;;22.25;100.00;101049.00;6184832;23;20012;-91
2023/08/19 06:33:18;;;;;;;14.45;9.38;;;;;;;22.35;100.00;101051.91;6184207;23;20027;-91
2023/08/19 06:35:48;;;;;;;13.38;9.15;;;;;;;22.32;100.00;101049.69;6184542;23;20235;-91
2023/08/19 06:38:17;;;;;;;13.82;8.93;;;;;;;22.39;100.00;101050.38;6209623;23;20020;-91
2023/08/19 06:41:00;;;;;;;11.85;8.98;;;;;;;22.42;100.00;101058.03;6183801;23;20518;-90
2023/08/19 06:43:26;;;;;;;12.63;8.73;;;;;;;22.47;100.00;101057.31;6212540;23;20338;-89
2023/08/19 06:45:55;;;;;;;13.23;9.07;;;;;;;22.60;100.00;101072.50;6183174;23;20004;-85
2023/08/19 06:48:24;;;;;;;14.35;9.15;;;;;;;22.59;100.00;101073.53;6212053;23;20013;-89
2023/08/19 06:50:54;;;;;;;12.48;9.02;;;;;;;22.61;100.00;101074.16;6211323;23;20016;-91
2023/08/19 06:53:21;;;;;;;13.30;9.15;;;;;;;22.66;100.00;101071.56;6210220;23;20345;-88
2023/08/19 06:56:20;;;;;;;11.32;9.07;;;;;;;22.69;100.00;101081.88;6211763;23;20032;-91
2023/08/19 06:58:54;;;;;;;14.32;8.93;;;;;;;22.74;100.00;101083.06;6148202;23;20039;-88
2023/08/19 07:01:26;;;;;;;12.10;9.27;;;;;;;22.68;100.00;101076.69;6184754;23;20015;-89
2023/08/19 07:03:52;;;;;;;14.23;8.85;;;;;;;22.76;100.00;101086.34;6183997;23;20071;-91
2023/08/19 07:06:20;;;;;;;14.85;8.95;;;;;;;22.76;100.00;101091.75;6211158;23;20453;-93
2023/08/19 07:08:50;;;;;;;14.88;9.27;;;;;;;22.63;100.00;101077.41;6183862;23;20009;-89
2023/08/19 07:11:16;;;;;;;16.25;8.98;;;;;;;22.69;100.00;101081.88;6184180;23;20068;-88
2023/08/19 07:13:42;;;;;;;13.93;8.88;;;;;;;22.86;100.00;101086.56;6211422;23;20096;-90
2023/08/19 07:16:10;;;;;;;10.88;8.60;;;;;;;22.74;100.00;101058.72;6182792;23;20004;-89
2023/08/19 07:18:39;;;;;;;12.15;8.43;;;;;;;22.96;100.00;101092.19;6184984;23;20023;-91
2023/08/19 07:21:11;;;;;;;12.38;9.07;;;;;;;23.04;100.00;101084.75;6184899;23;20020;-89
2023/08/19 07:23:39;;;;;;;13.33;9.17;;;;;;;23.22;100.00;101087.28;6213758;23;20012;-92
2023/08/19 07:26:05;;;;;;;13.52;8.88;;;;;;;23.36;100.00;101089.72;6212397;23;20361;-88
2023/08/19 07:28:31;;;;;;;16.08;8.43;;;;;;;23.45;100.00;101088.28;6212501;23;20012;-90
2023/08/19 07:30:58;;;;;;;14.35;8.95;;;;;;;23.51;98.57;101081.91;6185945;23;20012;-86
2023/08/19 07:33:24;;;;;;;14.02;8.77;;;;;;;23.59;98.19;101071.75;6202418;23;20424;-88
2023/08/19 07:35:49;;;;;;;10.65;8.57;;;;;;;23.66;97.86;101099.47;6201911;23;20058;-89
2023/08/19 07:38:14;;;;;;;12.27;8.27;;;;;;;23.78;97.92;101104.84;6223506;23;20032;-86
2023/08/19 07:40:40;;;;;;;11.32;8.10;;;;;;;23.82;97.20;101121.41;6223231;23;20004;-85
2023/08/19 07:43:05;;;;;;;13.57;8.63;;;;;;;23.96;95.69;101128.16;6222781;23;20020;-86
2023/08/19 07:45:31;;;;;;;17.38;8.70;;;;;;;24.03;97.00;101130.72;6215346;23;20001;-84
2023/08/19 07:47:56;;;;;;;13.00;8.52;;;;;;;24.08;96.72;101127.28;6207986;23;20040;-84
2023/08/19 07:50:23;;;;;;;12.35;8.70;;;;;;;24.09;96.54;101134.34;6208032;23;20520;-85
2023/08/19 07:52:49;;;;;;;14.23;9.00;;;;;;;24.02;95.73;101132.59;6208308;23;20032;-82
2023/08/19 07:55:14;;;;;;;16.55;8.38;;;;;;;24.07;97.29;101139.16;6208089;23;20013;-83
2023/08/19 07:57:40;;;;;;;12.13;8.38;;;;;;;24.06;96.56;101141.03;6208064;23;20009;-86
2023/08/19 08:00:06;;;;;;;12.30;8.07;;;;;;;24.09;96.37;101128.94;6206767;23;20009;-84
2023/08/19 08:02:31;;;;;;;14.18;8.70;;;;;;;24.15;96.75;101128.78;6206917;23;20024;-86
2023/08/19 08:04:58;;;;;;;12.05;8.35;;;;;;;24.12;97.43;101123.03;6206654;23;20062;-84
2023/08/19 08:07:24;;;;;;;14.55;8.30;;;;;;;24.08;95.17;101116.44;6207281;23;20016;-82
2023/08/19 08:09:50;;;;;;;13.40;8.63;;;;;;;24.22;95.36;101135.91;6207694;23;20011;-84
2023/08/19 08:12:15;;;;;;;12.15;8.00;;;;;;;24.18;95.07;101124.75;6207783;23;20012;-84
2023/08/19 08:14:41;;;;;;;10.98;7.90;;;;;;;24.24;95.63;101137.31;6208179;23;20717;-83
2023/08/19 08:17:06;;;;;;;10.73;7.90;;;;;;;24.18;96.39;101127.47;6207926;23;20035;-86
2023/08/19 08:19:31;;;;;;;12.10;7.78;;;;;;;24.10;95.43;101130.56;6205741;23;20085;-84
2023/08/19 08:21:57;;;;;;;12.25;8.00;;;;;;;24.12;95.09;101128.44;6205741;23;20032;-85
2023/08/19 08:24:23;;;;;;;13.77;7.90;;;;;;;24.25;96.37;101157.91;6204790;23;20024;-85
2023/08/19 08:26:48;;;;;;;11.35;7.80;;;;;;;24.13;96.12;101138.22;6204214;23;20013;-84
2023/08/19 08:29:14;;;;;;;15.23;8.02;;;;;;;24.20;96.37;101162.41;6205015;23;20019;-85
2023/08/19 08:31:39;;;;;;;13.57;8.20;;;;;;;24.14;96.27;101161.53;6204519;23;20008;-84
2023/08/19 08:34:05;;;;;;;10.90;7.85;;;;;;;24.20;97.08;101168.66;6204636;23;20021;-85
2023/08/19 08:36:31;;;;;;;13.77;7.97;;;;;;;24.12;97.32;101160.97;6178552;23;20464;-86
2023/08/19 08:38:56;;;;;;;12.18;8.52;;;;;;;24.17;97.21;101207.06;6204144;23;20028;-85
2023/08/19 08:41:22;;;;;;;13.88;8.80;;;;;;;24.06;97.31;101189.78;6204468;23;20028;-86
2023/08/19 08:43:49;;;;;;;14.25;8.13;;;;;;;24.13;98.08;101195.91;6204530;23;20084;-84
2023/08/19 08:46:15;;;;;;;12.88;8.57;;;;;;;23.98;97.29;101177.47;6204607;23;20008;-85
2023/08/19 08:48:43;;;;;;;15.20;8.38;;;;;;;24.12;97.13;101196.97;6177720;23;20015;-84
2023/08/19 08:51:09;;;;;;;12.35;8.70;;;;;;;24.04;99.55;101184.63;6204276;23;20080;-84
2023/08/19 08:53:35;;;;;;;14.88;8.98;;;;;;;24.09;99.67;101188.50;6204781;23;20138;-85
2023/08/19 08:56:00;;;;;;;12.50;8.55;;;;;;;24.03;100.00;101190.28;6205041;23;20440;-85
2023/08/19 08:58:26;;;;;;;13.73;8.98;;;;;;;24.11;99.75;101213.47;6177881;23;20023;-84
2023/08/19 09:00:53;;;;;;;13.35;8.95;;;;;;;24.02;99.22;101210.28;6177295;23;20517;-85
2023/08/19 09:03:23;;;;;;;14.52;8.73;;;;;;;24.03;99.26;101204.66;6177792;23;20044;-84
2023/08/19 09:05:52;;;;;;;12.35;9.18;;;;;;;24.15;100.00;101225.47;6204990;23;20012;-86
2023/08/19 09:08:24;;;;;;;12.90;8.80;;;;;;;24.21;100.00;101229.91;6204878;23;20488;-85
2023/08/19 09:10:50;;;;;;;15.35;9.95;;;;;;;24.17;100.00;101207.06;6204918;23;20079;-86
2023/08/19 09:13:20;;;;;;;19.38;9.77;;;;;;;24.21;100.00;101213.66;6205124;23;20139;-84
2023/08/19 09:15:45;;;;;;;14.68;10.85;;;;;;;24.35;99.85;101235.00;6204827;23;20337;-85
2023/08/19 09:18:11;;;;;;;13.88;10.35;;;;;;;24.40;100.00;101244.06;6204669;23;20083;-85
2023/08/19 09:20:36;;;;;;;16.67;10.45;;;;;;;24.44;99.90;101245.22;6204991;23;20059;-84
2023/08/19 09:23:09;;;;;;;14.63;9.93;;;;;;;24.44;100.00;101233.56;6204529;23;20008;-85
2023/08/19 09:25:34;;;;;;;15.50;10.93;;;;;;;24.55;100.00;101240.78;6204618;23;20012;-84
2023/08/19 09:28:00;;;;;;;16.52;11.27;;;;;;;24.64;100.00;101253.91;6204390;23;20008;-86
2023/08/19 09:30:33;;;;;;;16.92;11.93;;;;;;;24.60;100.00;101250.09;6204637;23;20108;-85
2023/08/19 09:32:59;;;;;;;17.33;11.82;;;;;;;24.62;99.42;101250.66;6204627;23;20005;-85
2023/08/19 09:35:25;;;;;;;16.83;11.48;;;;;;;24.72;100.00;101257.03;6204845;23;20425;-85
2023/08/19 09:37:50;;;;;;;17.27;12.88;;;;;;;24.72;97.55;101256.25;6204325;23;20015;-85
2023/08/19 09:40:20;;;;;;;19.42;12.18;;;;;;;24.83;100.00;101271.59;6205805;23;20093;-85
2023/08/19 09:42:47;;;;;;;18.08;13.70;;;;;;;24.97;97.42;101284.84;6206961;23;20016;-84
2023/08/19 09:45:17;;;;;;;17.25;13.88;;;;;;;24.96;98.37;101272.38;6206419;23;20009;-85
2023/08/19 09:47:48;;;;;;;16.33;13.07;;;;;;;25.20;100.00;101272.13;6206920;23;20071;-85
2023/08/19 09:50:14;;;;;;;17.60;13.60;;;;;;;25.19;99.19;101265.06;6206784;23;20020;-85
2023/08/19 09:52:40;;;;;;;19.20;13.20;;;;;;;25.36;97.92;101293.00;6179400;23;20005;-84
2023/08/19 09:55:06;;;;;;;19.08;14.27;;;;;;;25.33;96.90;101293.50;6205878;23;20015;-84
2023/08/19 09:57:35;;;;;;;15.80;13.13;;;;;;;25.36;96.03;101298.41;6206339;23;20080;-83
2023/08/19 10:00:05;;;;;;;19.73;13.15;;;;;;;25.42;95.92;101301.22;6179120;23;20062;-86
2023/08/19 10:02:32;;;;;;;20.92;12.93;;;;;;;25.57;98.12;101298.75;6205917;23;20016;-85
2023/08/19 10:04:57;;;;;;;20.33;12.82;;;;;;;25.85;95.64;101315.09;6178422;23;20503;-84
2023/08/19 10:07:30;;;;;;;16.77;12.02;;;;;;;25.84;93.89;101314.28;6179231;23;20099;-85
2023/08/19 10:09:57;;;;;;;17.02;11.25;;;;;;;25.69;95.26;101314.91;6206307;23;20008;-86
2023/08/19 10:12:23;;;;;;;18.27;11.32;;;;;;;25.64;94.47;101318.38;6206590;23;20008;-85
2023/08/19 10:14:52;;;;;;;16.55;11.25;;;;;;;25.64;96.52;101326.53;6206201;23;20314;-84
2023/08/19 10:17:20;;;;;;;15.48;12.57;;;;;;;25.50;92.80;101303.47;6204990;23;20009;-85
2023/08/19 10:19:54;;;;;;;19.73;12.75;;;;;;;25.59;95.50;101321.03;6205804;23;20059;-86
2023/08/19 10:22:20;;;;;;;17.80;12.98;;;;;;;25.50;93.91;101308.91;6207022;23;20035;-85
2023/08/19 10:24:47;;;;;;;17.85;13.00;;;;;;;25.77;92.56;101332.66;6205247;23;20481;-84
2023/08/19 10:27:19;;;;;;;21.55;13.98;;;;;;;25.77;90.84;101316.34;6205475;23;20015;-87
2023/08/19 10:29:48;;;;;;;18.63;13.18;;;;;;;25.92;90.13;101337.47;6205589;23;20388;-85
2023/08/19 10:32:30;;;;;;;16.52;12.73;;;;;;;25.97;91.23;101339.41;6205727;23;20016;-85
2023/08/19 10:35:09;;;;;;;17.55;12.32;;;;;;;25.90;93.05;101345.84;6206539;23;20019;-85
2023/08/19 10:37:39;;;;;;;17.35;13.30;;;;;;;25.82;92.51;101331.88;6206455;23;20384;-84
2023/08/19 10:40:11;;;;;;;20.05;12.75;;;;;;;25.78;93.82;101331.56;6205885;23;20054;-84
2023/08/19 10:42:37;;;;;;;18.15;13.07;;;;;;;25.87;91.01;101357.25;6206212;23;20011;-84
2023/08/19 10:45:12;;;;;;;17.90;12.77;;;;;;;25.71;93.54;101360.81;6179435;23;20008;-85
2023/08/19 10:47:40;;;;;;;17.27;12.27;;;;;;;25.65;95.51;101359.91;6179228;23;20855;-86
2023/08/19 10:50:07;;;;;;;21.70;13.02;;;;;;;25.55;94.24;101370.66;6205133;23;20004;-86
2023/08/19 10:52:32;;;;;;;17.63;12.65;;;;;;;25.48;94.27;101374.34;6205682;23;20071;-84
2023/08/19 10:54:59;;;;;;;17.88;13.30;;;;;;;25.34;94.05;101392.03;6178498;23;20020;-85
2023/08/19 10:57:26;;;;;;;18.92;13.43;;;;;;;25.23;94.73;101391.06;6206183;23;20008;-84
2023/08/19 10:59:57;;;;;;;19.08;13.43;;;;;;;25.16;95.29;101393.13;6205629;23;20088;-85
2023/08/19 11:02:27;;;;;;;20.17;13.95;;;;;;;25.04;95.02;101394.00;6179217;23;20356;-86
2023/08/19 11:04:53;;;;;;;20.35;14.13;;;;;;;25.03;94.23;101403.22;6205748;23;20541;-85